sensor_id;sensor_type;location;lat;lon;timestamp;pressure;altitude;pressure_sealevel;temperature;humidity
62438;BME280;48481;0.000;0.000;2023-05-15T00:02:19;100982.09;;;15.16;53.90
62438;BME280;48481;0.000;0.000;2023-05-15T00:04:45;100986.41;;;15.17;53.85
62438;BME280;48481;0.000;0.000;2023-05-15T00:07:10;100981.53;;;15.21;53.61
62438;BME280;48481;0.000;0.000;2023-05-15T00:09:36;100975.00;;;15.23;53.67
62438;BME280;48481;0.000;0.000;2023-05-15T00:12:02;100970.66;;;15.22;53.69
62438;BME280;48481;0.000;0.000;2023-05-15T00:14:27;100976.13;;;15.14;53.93
62438;BME280;48481;0.000;0.000;2023-05-15T00:16:53;100971.63;;;15.15;53.92
62438;BME280;48481;0.000;0.000;2023-05-15T00:19:18;100965.91;;;15.18;53.96
62438;BME280;48481;0.000;0.000;2023-05-15T00:21:43;100960.09;;;15.08;54.33
62438;BME280;48481;0.000;0.000;2023-05-15T00:24:09;100964.75;;;15.27;53.76
62438;BME280;48481;0.000;0.000;2023-05-15T00:26:34;100965.91;;;15.18;54.07
62438;BME280;48481;0.000;0.000;2023-05-15T00:29:01;100962.50;;;15.03;54.56
62438;BME280;48481;0.000;0.000;2023-05-15T00:31:26;100967.06;;;15.09;54.53
62438;BME280;48481;0.000;0.000;2023-05-15T00:33:51;100959.16;;;14.79;55.45
62438;BME280;48481;0.000;0.000;2023-05-15T00:36:17;100960.94;;;14.72;55.75
62438;BME280;48481;0.000;0.000;2023-05-15T00:38:42;100967.53;;;14.76;55.98
62438;BME280;48481;0.000;0.000;2023-05-15T00:41:09;100957.66;;;14.70;56.02
62438;BME280;48481;0.000;0.000;2023-05-15T00:43:35;100957.19;;;14.67;56.36
62438;BME280;48481;0.000;0.000;2023-05-15T00:46:03;100960.25;;;14.85;55.72
62438;BME280;48481;0.000;0.000;2023-05-15T00:48:28;100956.72;;;14.99;55.41
62438;BME280;48481;0.000;0.000;2023-05-15T00:50:56;100952.72;;;15.10;55.15
62438;BME280;48481;0.000;0.000;2023-05-15T00:53:23;100947.63;;;15.15;55.25
62438;BME280;48481;0.000;0.000;2023-05-15T00:55:50;100943.13;;;15.15;55.20
62438;BME280;48481;0.000;0.000;2023-05-15T00:58:17;100944.16;;;15.14;55.34
62438;BME280;48481;0.000;0.000;2023-05-15T01:00:47;100944.47;;;15.05;55.73
62438;BME280;48481;0.000;0.000;2023-05-15T01:03:13;100931.78;;;15.07;55.67
62438;BME280;48481;0.000;0.000;2023-05-15T01:05:39;100939.72;;;15.00;55.92
62438;BME280;48481;0.000;0.000;2023-05-15T01:08:21;100931.38;;;14.88;56.43
62438;BME280;48481;0.000;0.000;2023-05-15T01:10:48;100928.84;;;14.59;57.60
62438;BME280;48481;0.000;0.000;2023-05-15T01:13:18;100934.53;;;14.56;57.39
62438;BME280;48481;0.000;0.000;2023-05-15T01:15:44;100934.63;;;14.63;57.15
62438;BME280;48481;0.000;0.000;2023-05-15T01:18:09;100932.28;;;14.74;56.96
62438;BME280;48481;0.000;0.000;2023-05-15T01:28:58;100921.88;;;14.79;56.88
62438;BME280;48481;0.000;0.000;2023-05-15T01:31:28;100922.38;;;14.68;57.23
62438;BME280;48481;0.000;0.000;2023-05-15T01:33:58;100921.22;;;14.77;56.99
62438;BME280;48481;0.000;0.000;2023-05-15T01:36:37;100916.34;;;14.59;57.30
62438;BME280;48481;0.000;0.000;2023-05-15T01:39:04;100923.13;;;14.11;59.18
62438;BME280;48481;0.000;0.000;2023-05-15T01:41:40;100927.91;;;14.01;59.70
62438;BME280;48481;0.000;0.000;2023-05-15T01:44:10;100913.78;;;14.01;59.76
62438;BME280;48481;0.000;0.000;2023-05-15T01:46:42;100921.66;;;14.09;59.20
62438;BME280;48481;0.000;0.000;2023-05-15T01:49:12;100911.72;;;14.17;58.66
62438;BME280;48481;0.000;0.000;2023-05-15T01:51:38;100906.94;;;14.27;58.29
62438;BME280;48481;0.000;0.000;2023-05-15T01:54:07;100907.25;;;14.03;58.95
62438;BME280;48481;0.000;0.000;2023-05-15T01:56:34;100914.69;;;14.08;58.85
62438;BME280;48481;0.000;0.000;2023-05-15T01:59:01;100906.50;;;14.09;59.10
62438;BME280;48481;0.000;0.000;2023-05-15T02:01:28;100911.22;;;13.92;59.26
62438;BME280;48481;0.000;0.000;2023-05-15T02:03:56;100908.19;;;13.95;58.97
62438;BME280;48481;0.000;0.000;2023-05-15T02:06:22;100907.81;;;13.99;58.71
62438;BME280;48481;0.000;0.000;2023-05-15T02:08:49;100903.41;;;13.91;58.56
62438;BME280;48481;0.000;0.000;2023-05-15T02:11:15;100901.13;;;13.73;59.44
62438;BME280;48481;0.000;0.000;2023-05-15T02:13:41;100907.56;;;13.79;59.23
62438;BME280;48481;0.000;0.000;2023-05-15T02:16:07;100907.84;;;13.69;59.59
62438;BME280;48481;0.000;0.000;2023-05-15T02:18:32;100906.81;;;13.70;59.74
62438;BME280;48481;0.000;0.000;2023-05-15T02:20:58;100912.75;;;13.57;60.16
62438;BME280;48481;0.000;0.000;2023-05-15T02:23:27;100916.78;;;13.53;60.38
62438;BME280;48481;0.000;0.000;2023-05-15T02:31:33;100902.94;;;13.43;60.57
62438;BME280;48481;0.000;0.000;2023-05-15T02:34:18;100903.66;;;13.37;61.00
62438;BME280;48481;0.000;0.000;2023-05-15T02:36:48;100900.63;;;13.25;61.52
62438;BME280;48481;0.000;0.000;2023-05-15T02:39:17;100898.31;;;13.22;61.42
62438;BME280;48481;0.000;0.000;2023-05-15T02:41:45;100903.19;;;13.19;61.62
62438;BME280;48481;0.000;0.000;2023-05-15T02:44:12;100901.16;;;13.21;61.72
62438;BME280;48481;0.000;0.000;2023-05-15T02:46:39;100901.28;;;13.05;62.21
62438;BME280;48481;0.000;0.000;2023-05-15T02:49:05;100897.66;;;12.97;62.63
62438;BME280;48481;0.000;0.000;2023-05-15T02:51:31;100898.63;;;12.82;63.41
62438;BME280;48481;0.000;0.000;2023-05-15T02:53:59;100901.88;;;12.69;64.07
62438;BME280;48481;0.000;0.000;2023-05-15T02:56:25;100885.22;;;12.75;63.58
62438;BME280;48481;0.000;0.000;2023-05-15T02:58:50;100885.22;;;12.75;63.60
62438;BME280;48481;0.000;0.000;2023-05-15T03:01:16;100892.78;;;12.63;64.00
62438;BME280;48481;0.000;0.000;2023-05-15T03:03:41;100882.81;;;12.65;64.09
62438;BME280;48481;0.000;0.000;2023-05-15T03:06:06;100885.81;;;12.62;64.10
62438;BME280;48481;0.000;0.000;2023-05-15T03:08:32;100877.56;;;12.57;64.33
62438;BME280;48481;0.000;0.000;2023-05-15T03:10:57;100888.25;;;12.49;65.06
62438;BME280;48481;0.000;0.000;2023-05-15T03:13:22;100885.34;;;12.36;65.58
62438;BME280;48481;0.000;0.000;2023-05-15T03:15:48;100887.50;;;12.32;65.89
62438;BME280;48481;0.000;0.000;2023-05-15T03:18:13;100879.03;;;12.37;65.64
62438;BME280;48481;0.000;0.000;2023-05-15T03:20:38;100876.28;;;12.53;65.08
62438;BME280;48481;0.000;0.000;2023-05-15T03:23:04;100874.50;;;12.46;65.44
62438;BME280;48481;0.000;0.000;2023-05-15T03:25:29;100870.91;;;12.61;65.16
62438;BME280;48481;0.000;0.000;2023-05-15T03:27:55;100869.06;;;12.62;65.13
62438;BME280;48481;0.000;0.000;2023-05-15T03:30:20;100865.41;;;12.63;64.69
62438;BME280;48481;0.000;0.000;2023-05-15T03:32:46;100874.69;;;12.67;64.65
62438;BME280;48481;0.000;0.000;2023-05-15T03:35:11;100867.00;;;12.72;64.57
62438;BME280;48481;0.000;0.000;2023-05-15T03:37:36;100866.19;;;12.72;64.86
62438;BME280;48481;0.000;0.000;2023-05-15T03:40:02;100863.41;;;12.65;64.61
62438;BME280;48481;0.000;0.000;2023-05-15T03:42:28;100859.75;;;12.66;64.61
62438;BME280;48481;0.000;0.000;2023-05-15T03:44:54;100861.75;;;12.64;64.91
62438;BME280;48481;0.000;0.000;2023-05-15T03:47:20;100863.41;;;12.65;64.93
62438;BME280;48481;0.000;0.000;2023-05-15T03:49:45;100863.16;;;12.75;64.63
62438;BME280;48481;0.000;0.000;2023-05-15T03:52:11;100855.25;;;12.66;64.77
62438;BME280;48481;0.000;0.000;2023-05-15T03:54:36;100861.09;;;12.62;65.20
62438;BME280;48481;0.000;0.000;2023-05-15T03:57:02;100852.72;;;12.73;64.49
62438;BME280;48481;0.000;0.000;2023-05-15T03:59:29;100859.78;;;12.81;64.55
62438;BME280;48481;0.000;0.000;2023-05-15T04:01:55;100855.91;;;12.68;64.80
62438;BME280;48481;0.000;0.000;2023-05-15T04:04:20;100855.72;;;12.70;65.11
62438;BME280;48481;0.000;0.000;2023-05-15T04:06:45;100852.31;;;12.61;65.33
62438;BME280;48481;0.000;0.000;2023-05-15T04:09:11;100851.84;;;12.58;65.63
62438;BME280;48481;0.000;0.000;2023-05-15T04:11:36;100848.19;;;12.59;65.94
62438;BME280;48481;0.000;0.000;2023-05-15T04:14:01;100851.63;;;12.45;66.45
62438;BME280;48481;0.000;0.000;2023-05-15T04:16:27;100850.72;;;12.52;66.10
62438;BME280;48481;0.000;0.000;2023-05-15T04:18:52;100855.84;;;12.54;66.08
62438;BME280;48481;0.000;0.000;2023-05-15T04:21:17;100850.53;;;12.77;65.44
62438;BME280;48481;0.000;0.000;2023-05-15T04:23:43;100852.47;;;12.83;65.08
62438;BME280;48481;0.000;0.000;2023-05-15T04:26:08;100855.78;;;12.85;65.46
62438;BME280;48481;0.000;0.000;2023-05-15T04:28:34;100846.03;;;12.77;65.49
62438;BME280;48481;0.000;0.000;2023-05-15T04:31:00;100848.66;;;12.62;66.15
62438;BME280;48481;0.000;0.000;2023-05-15T04:33:25;100843.09;;;12.72;65.85
62438;BME280;48481;0.000;0.000;2023-05-15T04:35:51;100846.50;;;12.81;65.53
62438;BME280;48481;0.000;0.000;2023-05-15T04:38:17;100842.50;;;12.85;65.47
62438;BME280;48481;0.000;0.000;2023-05-15T04:40:42;100840.47;;;12.87;65.65
62438;BME280;48481;0.000;0.000;2023-05-15T04:43:08;100841.78;;;12.91;65.62
62438;BME280;48481;0.000;0.000;2023-05-15T04:45:34;100837.53;;;13.05;64.80
62438;BME280;48481;0.000;0.000;2023-05-15T04:48:00;100839.59;;;13.32;64.15
62438;BME280;48481;0.000;0.000;2023-05-15T04:50:25;100841.53;;;13.68;62.77
62438;BME280;48481;0.000;0.000;2023-05-15T04:52:50;100834.81;;;13.72;63.13
62438;BME280;48481;0.000;0.000;2023-05-15T04:55:16;100841.97;;;13.56;63.58
62438;BME280;48481;0.000;0.000;2023-05-15T04:57:41;100832.81;;;13.44;63.28
62438;BME280;48481;0.000;0.000;2023-05-15T05:00:07;100832.63;;;13.46;63.42
62438;BME280;48481;0.000;0.000;2023-05-15T05:02:37;100839.31;;;13.71;63.00
62438;BME280;48481;0.000;0.000;2023-05-15T05:05:02;100838.22;;;13.66;62.61
62438;BME280;48481;0.000;0.000;2023-05-15T05:07:28;100848.41;;;13.77;62.52
62438;BME280;48481;0.000;0.000;2023-05-15T05:09:53;100843.91;;;13.77;62.15
62438;BME280;48481;0.000;0.000;2023-05-15T05:12:18;100840.16;;;13.72;62.58
62438;BME280;48481;0.000;0.000;2023-05-15T05:14:44;100844.16;;;13.82;62.75
62438;BME280;48481;0.000;0.000;2023-05-15T05:17:09;100836.47;;;13.73;63.01
62438;BME280;48481;0.000;0.000;2023-05-15T05:19:35;100835.00;;;13.55;63.31
62438;BME280;48481;0.000;0.000;2023-05-15T05:22:00;100836.66;;;13.56;63.36
62438;BME280;48481;0.000;0.000;2023-05-15T05:24:29;100844.53;;;13.64;63.24
62438;BME280;48481;0.000;0.000;2023-05-15T05:26:54;100834.81;;;13.86;62.43
62438;BME280;48481;0.000;0.000;2023-05-15T05:29:22;100840.47;;;13.98;62.64
62438;BME280;48481;0.000;0.000;2023-05-15T05:31:47;100838.50;;;14.07;62.57
62438;BME280;48481;0.000;0.000;2023-05-15T05:34:13;100840.63;;;14.11;62.23
62438;BME280;48481;0.000;0.000;2023-05-15T05:36:38;100833.72;;;14.17;61.44
62438;BME280;48481;0.000;0.000;2023-05-15T05:39:04;100835.28;;;14.11;61.22
62438;BME280;48481;0.000;0.000;2023-05-15T05:41:29;100844.69;;;14.43;59.89
62438;BME280;48481;0.000;0.000;2023-05-15T05:43:54;100835.38;;;14.54;60.98
62438;BME280;48481;0.000;0.000;2023-05-15T05:46:20;100838.50;;;14.85;58.97
62438;BME280;48481;0.000;0.000;2023-05-15T05:48:45;100832.53;;;14.83;59.08
62438;BME280;48481;0.000;0.000;2023-05-15T05:51:10;100829.09;;;14.62;58.84
62438;BME280;48481;0.000;0.000;2023-05-15T05:53:36;100829.00;;;14.98;58.12
62438;BME280;48481;0.000;0.000;2023-05-15T05:56:01;100827.44;;;15.10;58.33
62438;BME280;48481;0.000;0.000;2023-05-15T05:58:27;100827.03;;;15.47;57.41
62438;BME280;48481;0.000;0.000;2023-05-15T06:00:53;100824.91;;;15.64;57.09
62438;BME280;48481;0.000;0.000;2023-05-15T06:03:19;100831.09;;;15.65;56.81
62438;BME280;48481;0.000;0.000;2023-05-15T06:05:44;100827.81;;;15.41;56.98
62438;BME280;48481;0.000;0.000;2023-05-15T06:08:10;100830.56;;;15.20;57.55
62438;BME280;48481;0.000;0.000;2023-05-15T06:10:36;100823.31;;;15.07;57.47
62438;BME280;48481;0.000;0.000;2023-05-15T06:13:01;100823.00;;;15.23;57.30
62438;BME280;48481;0.000;0.000;2023-05-15T06:15:27;100826.97;;;15.34;56.69
62438;BME280;48481;0.000;0.000;2023-05-15T06:17:52;100818.34;;;15.32;56.84
62438;BME280;48481;0.000;0.000;2023-05-15T06:20:17;100809.56;;;15.38;56.09
62438;BME280;48481;0.000;0.000;2023-05-15T06:22:43;100814.72;;;15.46;55.79
62438;BME280;48481;0.000;0.000;2023-05-15T06:25:08;100809.97;;;15.70;55.29
62438;BME280;48481;0.000;0.000;2023-05-15T06:27:39;100810.75;;;15.64;54.86
62438;BME280;48481;0.000;0.000;2023-05-15T06:30:05;100804.44;;;15.78;52.97
62438;BME280;48481;0.000;0.000;2023-05-15T06:32:31;100808.81;;;15.92;53.47
62438;BME280;48481;0.000;0.000;2023-05-15T06:34:57;100809.28;;;16.15;51.90
62438;BME280;48481;0.000;0.000;2023-05-15T06:37:23;100806.78;;;16.01;52.00
62438;BME280;48481;0.000;0.000;2023-05-15T06:39:48;100808.50;;;16.28;50.40
62438;BME280;48481;0.000;0.000;2023-05-15T06:42:14;100808.50;;;16.35;49.02
62438;BME280;48481;0.000;0.000;2023-05-15T06:44:39;100808.72;;;16.27;48.73
62438;BME280;48481;0.000;0.000;2023-05-15T06:47:05;100801.13;;;16.63;47.99
62438;BME280;48481;0.000;0.000;2023-05-15T06:49:30;100802.81;;;16.77;46.70
62438;BME280;48481;0.000;0.000;2023-05-15T06:51:56;100797.25;;;16.72;47.82
62438;BME280;48481;0.000;0.000;2023-05-15T06:54:21;100801.56;;;16.73;48.14
62438;BME280;48481;0.000;0.000;2023-05-15T06:56:46;100792.72;;;17.13;46.36
62438;BME280;48481;0.000;0.000;2023-05-15T06:59:12;100785.81;;;17.50;45.56
62438;BME280;48481;0.000;0.000;2023-05-15T07:01:37;100788.66;;;17.68;45.48
62438;BME280;48481;0.000;0.000;2023-05-15T07:04:03;100788.50;;;17.56;45.65
62438;BME280;48481;0.000;0.000;2023-05-15T07:06:29;100779.28;;;17.32;44.33
62438;BME280;48481;0.000;0.000;2023-05-15T07:08:56;100781.72;;;17.40;44.77
62438;BME280;48481;0.000;0.000;2023-05-15T07:11:21;100773.63;;;17.73;43.17
62438;BME280;48481;0.000;0.000;2023-05-15T07:13:47;100771.78;;;17.67;43.30
62438;BME280;48481;0.000;0.000;2023-05-15T07:16:12;100777.97;;;17.61;42.78
62438;BME280;48481;0.000;0.000;2023-05-15T07:18:38;100774.28;;;17.49;43.46
62438;BME280;48481;0.000;0.000;2023-05-15T07:21:03;100773.75;;;17.85;44.13
62438;BME280;48481;0.000;0.000;2023-05-15T07:23:28;100772.94;;;17.85;42.45
62438;BME280;48481;0.000;0.000;2023-05-15T07:25:54;100771.56;;;17.69;42.98
62438;BME280;48481;0.000;0.000;2023-05-15T07:28:20;100771.88;;;17.92;42.19
62438;BME280;48481;0.000;0.000;2023-05-15T07:30:45;100766.34;;;17.87;42.76
62438;BME280;48481;0.000;0.000;2023-05-15T07:33:11;100762.16;;;17.98;43.61
62438;BME280;48481;0.000;0.000;2023-05-15T07:35:36;100765.47;;;17.93;44.01
62438;BME280;48481;0.000;0.000;2023-05-15T07:38:02;100761.78;;;18.51;42.59
62438;BME280;48481;0.000;0.000;2023-05-15T07:40:27;100757.19;;;18.83;41.22
62438;BME280;48481;0.000;0.000;2023-05-15T07:42:52;100755.16;;;19.03;40.71
62438;BME280;48481;0.000;0.000;2023-05-15T07:45:18;100749.41;;;19.36;39.79
62438;BME280;48481;0.000;0.000;2023-05-15T07:47:44;100749.34;;;18.63;39.76
62438;BME280;48481;0.000;0.000;2023-05-15T07:50:11;100758.66;;;18.54;40.15
62438;BME280;48481;0.000;0.000;2023-05-15T07:52:36;100746.31;;;18.78;39.59
62438;BME280;48481;0.000;0.000;2023-05-15T07:55:02;100741.19;;;18.76;39.16
62438;BME280;48481;0.000;0.000;2023-05-15T07:57:28;100736.00;;;18.99;38.21
62438;BME280;48481;0.000;0.000;2023-05-15T07:59:54;100745.19;;;19.28;39.01
62438;BME280;48481;0.000;0.000;2023-05-15T08:02:20;100740.38;;;19.49;37.77
62438;BME280;48481;0.000;0.000;2023-05-15T08:04:45;100732.91;;;19.57;38.06
62438;BME280;48481;0.000;0.000;2023-05-15T08:07:12;100736.84;;;19.55;38.27
62438;BME280;48481;0.000;0.000;2023-05-15T08:09:37;100727.75;;;19.56;39.03
62438;BME280;48481;0.000;0.000;2023-05-15T08:12:21;100724.38;;;19.60;38.10
62438;BME280;48481;0.000;0.000;2023-05-15T08:14:51;100727.44;;;19.64;37.22
62438;BME280;48481;0.000;0.000;2023-05-15T08:17:16;100731.13;;;19.81;38.23
62438;BME280;48481;0.000;0.000;2023-05-15T08:19:42;100724.56;;;19.77;36.32
62438;BME280;48481;0.000;0.000;2023-05-15T08:22:08;100724.28;;;19.67;37.31
62438;BME280;48481;0.000;0.000;2023-05-15T08:24:33;100719.81;;;19.91;36.87
62438;BME280;48481;0.000;0.000;2023-05-15T08:26:58;100710.41;;;20.12;35.14
62438;BME280;48481;0.000;0.000;2023-05-15T08:29:24;100707.25;;;20.15;35.13
62438;BME280;48481;0.000;0.000;2023-05-15T08:31:50;100708.66;;;20.06;35.11
62438;BME280;48481;0.000;0.000;2023-05-15T08:34:15;100707.19;;;20.33;35.16
62438;BME280;48481;0.000;0.000;2023-05-15T08:36:40;100702.28;;;20.18;35.90
62438;BME280;48481;0.000;0.000;2023-05-15T08:39:06;100701.34;;;20.36;35.43
62438;BME280;48481;0.000;0.000;2023-05-15T08:41:44;100709.91;;;19.91;36.26
62438;BME280;48481;0.000;0.000;2023-05-15T08:44:12;100701.69;;;20.16;36.10
62438;BME280;48481;0.000;0.000;2023-05-15T08:46:38;100703.47;;;19.92;36.56
62438;BME280;48481;0.000;0.000;2023-05-15T08:49:10;100701.50;;;20.00;37.43
62438;BME280;48481;0.000;0.000;2023-05-15T08:51:38;100709.06;;;20.33;35.52
62438;BME280;48481;0.000;0.000;2023-05-15T08:54:04;100709.22;;;20.08;35.97
62438;BME280;48481;0.000;0.000;2023-05-15T08:56:29;100709.66;;;19.93;37.29
62438;BME280;48481;0.000;0.000;2023-05-15T08:58:55;100701.19;;;19.66;37.63
62438;BME280;48481;0.000;0.000;2023-05-15T09:01:21;100697.91;;;20.06;37.08
62438;BME280;48481;0.000;0.000;2023-05-15T09:03:48;100701.44;;;20.18;35.28
62438;BME280;48481;0.000;0.000;2023-05-15T09:06:13;100698.19;;;20.27;35.40
62438;BME280;48481;0.000;0.000;2023-05-15T09:08:39;100694.81;;;20.32;35.15
62438;BME280;48481;0.000;0.000;2023-05-15T09:11:06;100698.81;;;20.41;34.63
62438;BME280;48481;0.000;0.000;2023-05-15T09:13:32;100694.25;;;20.65;32.74
62438;BME280;48481;0.000;0.000;2023-05-15T09:15:58;100689.59;;;20.84;33.38
62438;BME280;48481;0.000;0.000;2023-05-15T09:18:25;100684.06;;;20.91;32.90
62438;BME280;48481;0.000;0.000;2023-05-15T09:20:50;100683.38;;;20.72;34.13
62438;BME280;48481;0.000;0.000;2023-05-15T09:23:26;100680.13;;;20.46;34.13
62438;BME280;48481;0.000;0.000;2023-05-15T09:25:52;100679.88;;;20.60;35.17
62438;BME280;48481;0.000;0.000;2023-05-15T09:28:28;100682.66;;;21.00;34.44
62438;BME280;48481;0.000;0.000;2023-05-15T09:31:01;100683.63;;;21.22;33.02
62438;BME280;48481;0.000;0.000;2023-05-15T09:33:28;100683.94;;;20.97;33.06
62438;BME280;48481;0.000;0.000;2023-05-15T09:35:54;100679.78;;;21.18;32.49
62438;BME280;48481;0.000;0.000;2023-05-15T09:38:19;100675.75;;;21.44;32.43
62438;BME280;48481;0.000;0.000;2023-05-15T09:40:45;100674.16;;;21.31;32.75
62438;BME280;48481;0.000;0.000;2023-05-15T09:43:10;100673.84;;;21.56;33.01
62438;BME280;48481;0.000;0.000;2023-05-15T09:45:36;100668.28;;;21.46;32.91
62438;BME280;48481;0.000;0.000;2023-05-15T09:48:05;100665.59;;;21.46;33.40
62438;BME280;48481;0.000;0.000;2023-05-15T09:50:36;100677.63;;;20.80;34.91
62438;BME280;48481;0.000;0.000;2023-05-15T09:53:02;100665.59;;;20.94;33.62
62438;BME280;48481;0.000;0.000;2023-05-15T09:55:31;100668.22;;;21.17;32.83
62438;BME280;48481;0.000;0.000;2023-05-15T09:58:07;100660.25;;;21.23;33.49
62438;BME280;48481;0.000;0.000;2023-05-15T10:00:33;100664.84;;;21.10;32.21
62438;BME280;48481;0.000;0.000;2023-05-15T10:03:03;100664.94;;;21.56;31.65
62438;BME280;48481;0.000;0.000;2023-05-15T10:05:29;100654.78;;;21.06;31.91
62438;BME280;48481;0.000;0.000;2023-05-15T10:07:55;100661.28;;;20.58;33.34
62438;BME280;48481;0.000;0.000;2023-05-15T10:10:21;100650.94;;;21.02;33.14
62438;BME280;48481;0.000;0.000;2023-05-15T10:12:49;100647.56;;;21.35;32.32
62438;BME280;48481;0.000;0.000;2023-05-15T10:15:17;100647.09;;;21.38;32.04
62438;BME280;48481;0.000;0.000;2023-05-15T10:17:43;100643.81;;;21.36;31.18
62438;BME280;48481;0.000;0.000;2023-05-15T10:20:10;100647.41;;;21.53;31.39
62438;BME280;48481;0.000;0.000;2023-05-15T10:22:37;100648.41;;;21.64;30.78
62438;BME280;48481;0.000;0.000;2023-05-15T10:25:15;100646.44;;;21.76;30.28
62438;BME280;48481;0.000;0.000;2023-05-15T10:27:41;100644.59;;;22.10;29.66
62438;BME280;48481;0.000;0.000;2023-05-15T10:30:09;100640.63;;;22.12;30.12
62438;BME280;48481;0.000;0.000;2023-05-15T10:32:35;100626.38;;;22.00;29.65
62438;BME280;48481;0.000;0.000;2023-05-15T10:35:01;100633.25;;;22.08;30.55
62438;BME280;48481;0.000;0.000;2023-05-15T10:37:28;100625.97;;;21.92;29.90
62438;BME280;48481;0.000;0.000;2023-05-15T10:39:54;100633.06;;;21.64;30.99
62438;BME280;48481;0.000;0.000;2023-05-15T10:42:20;100637.59;;;21.07;30.84
62438;BME280;48481;0.000;0.000;2023-05-15T10:44:47;100643.94;;;20.89;30.60
62438;BME280;48481;0.000;0.000;2023-05-15T10:47:13;100619.69;;;21.01;30.08
62438;BME280;48481;0.000;0.000;2023-05-15T10:49:38;100623.81;;;20.92;29.40
62438;BME280;48481;0.000;0.000;2023-05-15T10:52:04;100618.25;;;20.70;30.53
62438;BME280;48481;0.000;0.000;2023-05-15T10:54:30;100617.78;;;21.25;30.43
62438;BME280;48481;0.000;0.000;2023-05-15T10:56:55;100618.25;;;21.50;31.45
62438;BME280;48481;0.000;0.000;2023-05-15T10:59:29;100614.13;;;21.59;30.44
62438;BME280;48481;0.000;0.000;2023-05-15T11:01:55;100612.06;;;21.66;30.46
62438;BME280;48481;0.000;0.000;2023-05-15T11:04:22;100607.34;;;21.57;30.97
62438;BME280;48481;0.000;0.000;2023-05-15T11:06:49;100617.00;;;21.41;31.28
62438;BME280;48481;0.000;0.000;2023-05-15T11:11:57;100611.81;;;21.11;31.18
62438;BME280;48481;0.000;0.000;2023-05-15T11:14:26;100611.44;;;21.19;30.78
62438;BME280;48481;0.000;0.000;2023-05-15T11:19:53;100610.50;;;20.85;30.19
62438;BME280;48481;0.000;0.000;2023-05-15T11:22:31;100598.53;;;21.33;29.81
62438;BME280;48481;0.000;0.000;2023-05-15T11:25:06;100609.13;;;21.23;30.20
62438;BME280;48481;0.000;0.000;2023-05-15T11:27:44;100600.41;;;21.61;30.19
62438;BME280;48481;0.000;0.000;2023-05-15T11:32:44;100583.13;;;21.45;29.22
62438;BME280;48481;0.000;0.000;2023-05-15T11:35:28;100584.16;;;21.72;28.83
62438;BME280;48481;0.000;0.000;2023-05-15T11:37:58;100581.78;;;21.76;29.48
62438;BME280;48481;0.000;0.000;2023-05-15T11:40:29;100584.25;;;21.77;29.75
62438;BME280;48481;0.000;0.000;2023-05-15T11:43:24;100590.78;;;21.36;30.90
62438;BME280;48481;0.000;0.000;2023-05-15T11:46:06;100585.63;;;21.46;30.34
62438;BME280;48481;0.000;0.000;2023-05-15T11:48:37;100585.38;;;21.48;30.34
62438;BME280;48481;0.000;0.000;2023-05-15T11:51:04;100579.78;;;21.38;28.42
62438;BME280;48481;0.000;0.000;2023-05-15T11:53:30;100568.91;;;21.04;29.65
62438;BME280;48481;0.000;0.000;2023-05-15T11:55:56;100581.47;;;20.99;29.72
62438;BME280;48481;0.000;0.000;2023-05-15T11:58:23;100572.84;;;21.13;29.44
62438;BME280;48481;0.000;0.000;2023-05-15T12:00:50;100575.63;;;21.18;29.30
62438;BME280;48481;0.000;0.000;2023-05-15T12:05:43;100575.22;;;21.38;28.59
62438;BME280;48481;0.000;0.000;2023-05-15T12:08:12;100571.19;;;21.69;29.12
62438;BME280;48481;0.000;0.000;2023-05-15T12:10:44;100568.97;;;21.66;29.58
62438;BME280;48481;0.000;0.000;2023-05-15T12:13:13;100568.72;;;21.84;29.60
62438;BME280;48481;0.000;0.000;2023-05-15T12:15:41;100566.13;;;21.73;30.11
62438;BME280;48481;0.000;0.000;2023-05-15T12:18:07;100563.91;;;21.70;30.40
62438;BME280;48481;0.000;0.000;2023-05-15T12:20:38;100565.13;;;21.62;33.20
62438;BME280;48481;0.000;0.000;2023-05-15T12:23:06;100560.16;;;21.54;35.99
62438;BME280;48481;0.000;0.000;2023-05-15T12:25:33;100562.19;;;21.18;38.23
62438;BME280;48481;0.000;0.000;2023-05-15T12:28:01;100564.38;;;21.21;38.76
62438;BME280;48481;0.000;0.000;2023-05-15T12:30:28;100567.47;;;21.13;38.75
62438;BME280;48481;0.000;0.000;2023-05-15T12:33:04;100564.09;;;21.06;38.93
62438;BME280;48481;0.000;0.000;2023-05-15T12:35:34;100564.88;;;20.90;39.34
62438;BME280;48481;0.000;0.000;2023-05-15T12:38:04;100565.13;;;20.77;40.45
62438;BME280;48481;0.000;0.000;2023-05-15T12:40:32;100562.69;;;20.75;40.96
62438;BME280;48481;0.000;0.000;2023-05-15T12:42:58;100567.13;;;20.70;41.68
62438;BME280;48481;0.000;0.000;2023-05-15T12:45:24;100558.06;;;20.47;41.83
62438;BME280;48481;0.000;0.000;2023-05-15T12:47:50;100565.56;;;20.34;42.19
62438;BME280;48481;0.000;0.000;2023-05-15T12:50:20;100556.66;;;20.56;42.43
62438;BME280;48481;0.000;0.000;2023-05-15T12:52:55;100561.13;;;20.39;42.53
62438;BME280;48481;0.000;0.000;2023-05-15T12:55:33;100572.78;;;20.56;42.31
62438;BME280;48481;0.000;0.000;2023-05-15T12:58:07;100554.34;;;20.48;42.83
62438;BME280;48481;0.000;0.000;2023-05-15T13:00:37;100563.56;;;20.29;43.52
62438;BME280;48481;0.000;0.000;2023-05-15T13:03:03;100558.44;;;20.16;44.39
62438;BME280;48481;0.000;0.000;2023-05-15T13:05:32;100559.81;;;20.07;44.29
62438;BME280;48481;0.000;0.000;2023-05-15T13:07:58;100572.44;;;20.06;45.16
62438;BME280;48481;0.000;0.000;2023-05-15T13:10:24;100571.03;;;20.04;46.27
62438;BME280;48481;0.000;0.000;2023-05-15T13:12:51;100570.56;;;19.95;46.74
62438;BME280;48481;0.000;0.000;2023-05-15T13:15:38;100559.84;;;20.18;46.38
62438;BME280;48481;0.000;0.000;2023-05-15T13:18:08;100565.09;;;20.25;46.74
62438;BME280;48481;0.000;0.000;2023-05-15T13:20:37;100572.34;;;20.24;45.77
62438;BME280;48481;0.000;0.000;2023-05-15T13:23:03;100564.50;;;20.35;44.29
62438;BME280;48481;0.000;0.000;2023-05-15T13:25:28;100556.56;;;20.16;45.39